METAR Data
IDs: Format: Raw Decoded Include TAF

Data at: 0257 UTC 25 Feb 2021

ULLI 250230Z 27006MPS 4400 BR OVC004 03/02 Q1010 R28L/610350 NOSIG RMK QBB120 OBST OBSC